Visit the IPS Meteostar Home Page IPSM Red Wing Municipal Airport FORECAST

Miesville, Minnesota

3

28

35

42

32

18

22

38

17
17
17
25
11
4
14

16 miles away at Red Wing Municipal Airport 11:35 GMT

Weather:

Clear

Wind:

CALM

Temperature:

3 ° F

Pressure:

30.29

Dew Point:

-2 ° F

Relative Humidity:

75

Feels Like:

3 ° F

Visibility:

10 miles


Aviation Observations:

KRGK 241135Z AUTO 00000KT 10SM CLR M16/M19 A3022 RMK AO2 =

National Weather Service Forecast:
Dakota

dakota- including the city of hastings
344 AM CST WED JAN 24 2018

TODAY

Cloudy. Highs in the upper 20s. Southwest winds around 5 mph.

TONIGHT

Decreasing clouds. Lows around 17. South winds around 5 mph.

THURSDAY

Partly cloudy. Highs in the mid 30s. Southeast winds 5 to 10 mph.

THURSDAY NIGHT

Not as cold. Partly cloudy in the evening then clearing. Near steady temperature in the lower 30s. Southeast winds 10 to 15 mph.

FRIDAY

Partly cloudy. Highs in the lower 40s. Southwest winds 10 to 15 mph.

FRIDAY NIGHT AND SATURDAY

Mostly clear. Lows in the mid 20s. highs in the lower 30s.

SATURDAY NIGHT AND SUNDAY

Colder. Partly cloudy. Lows around 11. Highs around 18.

SUNDAY NIGHT AND MONDAY

Partly cloudy. Lows around 4. Highs in the lower 20s.

MONDAY NIGHT AND TUESDAY

Not as cool. Partly cloudy. Lows around 14. Highs in the upper 30s.


Visit the IPS Meteostar Home Page